sensor_id;sensor_type;location;lat;lon;timestamp;P1;durP1;ratioP1;P2;durP2;ratioP2
2119;SDS011;1066;52.540;13.420;2023-05-07T00:01:09;10.60;;;9.60;;
2119;SDS011;1066;52.540;13.420;2023-05-07T00:04:28;10.13;;;9.13;;
2119;SDS011;1066;52.540;13.420;2023-05-07T00:07:46;10.37;;;9.40;;
2119;SDS011;1066;52.540;13.420;2023-05-07T00:11:04;9.40;;;8.47;;
2119;SDS011;1066;52.540;13.420;2023-05-07T00:14:22;10.60;;;9.60;;
2119;SDS011;1066;52.540;13.420;2023-05-07T00:17:40;9.87;;;9.07;;
2119;SDS011;1066;52.540;13.420;2023-05-07T00:20:58;9.97;;;9.03;;
2119;SDS011;1066;52.540;13.420;2023-05-07T00:24:18;10.10;;;8.83;;
2119;SDS011;1066;52.540;13.420;2023-05-07T00:27:36;9.37;;;8.50;;
2119;SDS011;1066;52.540;13.420;2023-05-07T00:30:54;9.13;;;8.33;;
2119;SDS011;1066;52.540;13.420;2023-05-07T00:34:12;9.83;;;8.60;;
2119;SDS011;1066;52.540;13.420;2023-05-07T00:37:30;9.77;;;8.77;;
2119;SDS011;1066;52.540;13.420;2023-05-07T00:40:48;9.10;;;8.00;;
2119;SDS011;1066;52.540;13.420;2023-05-07T00:44:06;10.37;;;8.93;;
2119;SDS011;1066;52.540;13.420;2023-05-07T00:47:24;10.87;;;9.00;;
2119;SDS011;1066;52.540;13.420;2023-05-07T00:50:42;10.13;;;9.10;;
2119;SDS011;1066;52.540;13.420;2023-05-07T00:54:01;10.27;;;9.37;;
2119;SDS011;1066;52.540;13.420;2023-05-07T00:57:20;9.63;;;8.80;;
2119;SDS011;1066;52.540;13.420;2023-05-07T01:00:38;10.23;;;8.60;;
2119;SDS011;1066;52.540;13.420;2023-05-07T01:03:56;10.87;;;8.73;;
2119;SDS011;1066;52.540;13.420;2023-05-07T01:07:14;9.33;;;8.50;;
2119;SDS011;1066;52.540;13.420;2023-05-07T01:10:32;10.53;;;9.43;;
2119;SDS011;1066;52.540;13.420;2023-05-07T01:13:50;10.60;;;9.70;;
2119;SDS011;1066;52.540;13.420;2023-05-07T01:17:08;7.83;;;7.07;;
2119;SDS011;1066;52.540;13.420;2023-05-07T01:20:26;10.00;;;9.10;;
2119;SDS011;1066;52.540;13.420;2023-05-07T01:23:45;9.53;;;8.63;;
2119;SDS011;1066;52.540;13.420;2023-05-07T01:27:03;9.47;;;8.67;;
2119;SDS011;1066;52.540;13.420;2023-05-07T01:30:21;9.53;;;8.73;;
2119;SDS011;1066;52.540;13.420;2023-05-07T01:33:40;9.63;;;8.73;;
2119;SDS011;1066;52.540;13.420;2023-05-07T01:36:58;9.77;;;8.80;;
2119;SDS011;1066;52.540;13.420;2023-05-07T01:40:16;10.67;;;9.63;;
2119;SDS011;1066;52.540;13.420;2023-05-07T01:43:35;9.67;;;8.87;;
2119;SDS011;1066;52.540;13.420;2023-05-07T01:46:53;8.93;;;8.10;;
2119;SDS011;1066;52.540;13.420;2023-05-07T01:50:11;9.20;;;8.40;;
2119;SDS011;1066;52.540;13.420;2023-05-07T01:53:35;8.03;;;7.10;;
2119;SDS011;1066;52.540;13.420;2023-05-07T01:56:53;9.73;;;8.93;;
2119;SDS011;1066;52.540;13.420;2023-05-07T02:00:10;9.40;;;8.60;;
2119;SDS011;1066;52.540;13.420;2023-05-07T02:03:28;8.97;;;8.17;;
2119;SDS011;1066;52.540;13.420;2023-05-07T02:06:46;10.13;;;9.27;;
2119;SDS011;1066;52.540;13.420;2023-05-07T02:10:04;10.20;;;9.30;;
2119;SDS011;1066;52.540;13.420;2023-05-07T02:13:22;10.10;;;9.17;;
2119;SDS011;1066;52.540;13.420;2023-05-07T02:16:40;9.30;;;8.40;;
2119;SDS011;1066;52.540;13.420;2023-05-07T02:19:58;9.60;;;8.60;;
2119;SDS011;1066;52.540;13.420;2023-05-07T02:23:16;10.13;;;9.23;;
2119;SDS011;1066;52.540;13.420;2023-05-07T02:26:34;8.80;;;8.00;;
2119;SDS011;1066;52.540;13.420;2023-05-07T02:29:52;11.03;;;9.83;;
2119;SDS011;1066;52.540;13.420;2023-05-07T02:33:10;9.80;;;9.00;;
2119;SDS011;1066;52.540;13.420;2023-05-07T02:36:28;9.70;;;8.90;;
2119;SDS011;1066;52.540;13.420;2023-05-07T02:39:46;9.33;;;8.53;;
2119;SDS011;1066;52.540;13.420;2023-05-07T02:43:04;8.77;;;7.97;;
2119;SDS011;1066;52.540;13.420;2023-05-07T02:46:22;9.93;;;9.00;;
2119;SDS011;1066;52.540;13.420;2023-05-07T02:49:40;8.90;;;8.10;;
2119;SDS011;1066;52.540;13.420;2023-05-07T02:52:58;9.13;;;8.33;;
2119;SDS011;1066;52.540;13.420;2023-05-07T02:56:16;9.50;;;8.33;;
2119;SDS011;1066;52.540;13.420;2023-05-07T02:59:34;8.77;;;8.03;;
2119;SDS011;1066;52.540;13.420;2023-05-07T03:02:52;8.07;;;7.37;;
2119;SDS011;1066;52.540;13.420;2023-05-07T03:06:09;9.00;;;8.20;;
2119;SDS011;1066;52.540;13.420;2023-05-07T03:09:27;8.17;;;7.37;;
2119;SDS011;1066;52.540;13.420;2023-05-07T03:12:45;8.50;;;7.70;;
2119;SDS011;1066;52.540;13.420;2023-05-07T03:16:03;8.10;;;7.37;;
2119;SDS011;1066;52.540;13.420;2023-05-07T03:19:21;9.53;;;8.50;;
2119;SDS011;1066;52.540;13.420;2023-05-07T03:22:39;8.77;;;7.87;;
2119;SDS011;1066;52.540;13.420;2023-05-07T03:25:57;10.07;;;7.67;;
2119;SDS011;1066;52.540;13.420;2023-05-07T03:29:15;8.87;;;8.00;;
2119;SDS011;1066;52.540;13.420;2023-05-07T03:32:33;9.33;;;8.53;;
2119;SDS011;1066;52.540;13.420;2023-05-07T03:35:52;8.20;;;7.40;;
2119;SDS011;1066;52.540;13.420;2023-05-07T03:39:10;8.77;;;7.93;;
2119;SDS011;1066;52.540;13.420;2023-05-07T03:42:28;9.30;;;8.50;;
2119;SDS011;1066;52.540;13.420;2023-05-07T03:45:46;9.00;;;8.23;;
2119;SDS011;1066;52.540;13.420;2023-05-07T03:49:04;8.83;;;8.00;;
2119;SDS011;1066;52.540;13.420;2023-05-07T03:52:22;9.67;;;8.67;;
2119;SDS011;1066;52.540;13.420;2023-05-07T03:55:40;8.73;;;7.60;;
2119;SDS011;1066;52.540;13.420;2023-05-07T03:58:58;8.33;;;7.63;;
2119;SDS011;1066;52.540;13.420;2023-05-07T04:02:16;9.50;;;8.67;;
2119;SDS011;1066;52.540;13.420;2023-05-07T04:05:34;8.17;;;7.37;;
2119;SDS011;1066;52.540;13.420;2023-05-07T04:08:52;8.17;;;7.23;;
2119;SDS011;1066;52.540;13.420;2023-05-07T04:12:10;8.77;;;7.97;;
2119;SDS011;1066;52.540;13.420;2023-05-07T04:15:28;8.47;;;7.60;;
2119;SDS011;1066;52.540;13.420;2023-05-07T04:18:46;7.23;;;6.63;;
2119;SDS011;1066;52.540;13.420;2023-05-07T04:22:03;8.20;;;7.40;;
2119;SDS011;1066;52.540;13.420;2023-05-07T04:25:21;7.87;;;6.70;;
2119;SDS011;1066;52.540;13.420;2023-05-07T04:28:40;8.13;;;7.33;;
2119;SDS011;1066;52.540;13.420;2023-05-07T04:31:57;7.77;;;7.07;;
2119;SDS011;1066;52.540;13.420;2023-05-07T04:35:15;9.17;;;7.77;;
2119;SDS011;1066;52.540;13.420;2023-05-07T04:38:33;8.57;;;7.43;;
2119;SDS011;1066;52.540;13.420;2023-05-07T04:41:51;7.97;;;7.17;;
2119;SDS011;1066;52.540;13.420;2023-05-07T04:45:09;7.83;;;7.10;;
2119;SDS011;1066;52.540;13.420;2023-05-07T04:48:27;8.13;;;7.30;;
2119;SDS011;1066;52.540;13.420;2023-05-07T04:51:45;8.47;;;6.83;;
2119;SDS011;1066;52.540;13.420;2023-05-07T04:55:03;7.97;;;6.13;;
2119;SDS011;1066;52.540;13.420;2023-05-07T04:58:24;6.53;;;5.90;;
2119;SDS011;1066;52.540;13.420;2023-05-07T05:01:42;6.37;;;5.80;;
2119;SDS011;1066;52.540;13.420;2023-05-07T05:05:00;6.50;;;5.90;;
2119;SDS011;1066;52.540;13.420;2023-05-07T05:08:18;8.73;;;5.97;;
2119;SDS011;1066;52.540;13.420;2023-05-07T05:11:36;8.67;;;7.70;;
2119;SDS011;1066;52.540;13.420;2023-05-07T05:14:54;6.10;;;5.53;;
2119;SDS011;1066;52.540;13.420;2023-05-07T05:18:12;7.20;;;6.50;;
2119;SDS011;1066;52.540;13.420;2023-05-07T05:21:30;6.07;;;5.50;;
2119;SDS011;1066;52.540;13.420;2023-05-07T05:24:48;6.33;;;5.80;;
2119;SDS011;1066;52.540;13.420;2023-05-07T05:28:06;8.07;;;7.27;;
2119;SDS011;1066;52.540;13.420;2023-05-07T05:31:24;6.87;;;6.27;;
2119;SDS011;1066;52.540;13.420;2023-05-07T05:34:42;7.37;;;6.70;;
2119;SDS011;1066;52.540;13.420;2023-05-07T05:38:00;8.07;;;7.27;;
2119;SDS011;1066;52.540;13.420;2023-05-07T05:41:18;7.57;;;6.70;;
2119;SDS011;1066;52.540;13.420;2023-05-07T05:44:36;7.50;;;6.80;;
2119;SDS011;1066;52.540;13.420;2023-05-07T05:47:55;8.80;;;7.10;;
2119;SDS011;1066;52.540;13.420;2023-05-07T05:51:13;7.20;;;6.50;;
2119;SDS011;1066;52.540;13.420;2023-05-07T05:54:31;7.70;;;6.90;;
2119;SDS011;1066;52.540;13.420;2023-05-07T05:57:49;7.07;;;6.47;;
2119;SDS011;1066;52.540;13.420;2023-05-07T06:01:07;6.57;;;5.97;;
2119;SDS011;1066;52.540;13.420;2023-05-07T06:04:25;7.10;;;6.40;;
2119;SDS011;1066;52.540;13.420;2023-05-07T06:07:43;6.93;;;6.27;;
2119;SDS011;1066;52.540;13.420;2023-05-07T06:11:01;8.00;;;6.50;;
2119;SDS011;1066;52.540;13.420;2023-05-07T06:14:19;7.43;;;6.53;;
2119;SDS011;1066;52.540;13.420;2023-05-07T06:17:37;7.60;;;6.77;;
2119;SDS011;1066;52.540;13.420;2023-05-07T06:20:55;7.63;;;6.20;;
2119;SDS011;1066;52.540;13.420;2023-05-07T06:24:12;6.87;;;6.27;;
2119;SDS011;1066;52.540;13.420;2023-05-07T06:27:30;7.57;;;6.10;;
2119;SDS011;1066;52.540;13.420;2023-05-07T06:30:48;7.30;;;6.60;;
2119;SDS011;1066;52.540;13.420;2023-05-07T06:34:07;7.27;;;6.57;;
2119;SDS011;1066;52.540;13.420;2023-05-07T06:37:25;7.53;;;6.67;;
2119;SDS011;1066;52.540;13.420;2023-05-07T06:40:43;7.93;;;7.23;;
2119;SDS011;1066;52.540;13.420;2023-05-07T06:44:01;7.70;;;6.87;;
2119;SDS011;1066;52.540;13.420;2023-05-07T06:47:19;7.47;;;6.80;;
2119;SDS011;1066;52.540;13.420;2023-05-07T06:50:37;7.10;;;6.50;;
2119;SDS011;1066;52.540;13.420;2023-05-07T06:53:55;7.10;;;6.50;;
2119;SDS011;1066;52.540;13.420;2023-05-07T06:57:13;6.43;;;5.83;;
2119;SDS011;1066;52.540;13.420;2023-05-07T07:00:31;7.03;;;6.40;;
2119;SDS011;1066;52.540;13.420;2023-05-07T07:03:49;6.40;;;5.80;;
2119;SDS011;1066;52.540;13.420;2023-05-07T07:07:07;8.50;;;7.60;;
2119;SDS011;1066;52.540;13.420;2023-05-07T07:10:25;9.80;;;8.70;;
2119;SDS011;1066;52.540;13.420;2023-05-07T07:13:43;8.20;;;6.87;;
2119;SDS011;1066;52.540;13.420;2023-05-07T07:17:00;7.43;;;6.73;;
2119;SDS011;1066;52.540;13.420;2023-05-07T07:20:18;6.60;;;5.90;;
2119;SDS011;1066;52.540;13.420;2023-05-07T07:23:36;6.00;;;5.40;;
2119;SDS011;1066;52.540;13.420;2023-05-07T07:26:54;6.57;;;5.80;;
2119;SDS011;1066;52.540;13.420;2023-05-07T07:30:12;5.10;;;4.63;;
2119;SDS011;1066;52.540;13.420;2023-05-07T07:33:30;4.67;;;4.10;;
2119;SDS011;1066;52.540;13.420;2023-05-07T07:36:47;4.63;;;4.23;;
2119;SDS011;1066;52.540;13.420;2023-05-07T07:40:05;4.80;;;4.43;;
2119;SDS011;1066;52.540;13.420;2023-05-07T07:43:24;4.70;;;4.30;;
2119;SDS011;1066;52.540;13.420;2023-05-07T07:46:42;4.77;;;3.90;;
2119;SDS011;1066;52.540;13.420;2023-05-07T07:50:00;4.80;;;4.37;;
2119;SDS011;1066;52.540;13.420;2023-05-07T07:53:19;6.07;;;4.83;;
2119;SDS011;1066;52.540;13.420;2023-05-07T07:56:37;4.73;;;4.33;;
2119;SDS011;1066;52.540;13.420;2023-05-07T07:59:55;3.97;;;3.57;;
2119;SDS011;1066;52.540;13.420;2023-05-07T08:03:13;4.90;;;4.40;;
2119;SDS011;1066;52.540;13.420;2023-05-07T08:06:32;4.77;;;4.27;;
2119;SDS011;1066;52.540;13.420;2023-05-07T08:09:49;3.50;;;3.20;;
2119;SDS011;1066;52.540;13.420;2023-05-07T08:13:07;3.43;;;3.13;;
2119;SDS011;1066;52.540;13.420;2023-05-07T08:16:25;4.30;;;4.00;;
2119;SDS011;1066;52.540;13.420;2023-05-07T08:19:43;3.90;;;3.60;;
2119;SDS011;1066;52.540;13.420;2023-05-07T08:23:04;3.80;;;3.40;;
2119;SDS011;1066;52.540;13.420;2023-05-07T08:26:22;3.60;;;3.30;;
2119;SDS011;1066;52.540;13.420;2023-05-07T08:29:40;3.30;;;3.03;;
2119;SDS011;1066;52.540;13.420;2023-05-07T08:32:58;7.00;;;6.30;;
2119;SDS011;1066;52.540;13.420;2023-05-07T08:36:15;45.10;;;37.33;;
2119;SDS011;1066;52.540;13.420;2023-05-07T08:39:33;7.13;;;6.17;;
2119;SDS011;1066;52.540;13.420;2023-05-07T08:42:54;6.43;;;5.77;;
2119;SDS011;1066;52.540;13.420;2023-05-07T08:46:21;4.77;;;4.27;;
2119;SDS011;1066;52.540;13.420;2023-05-07T08:49:39;4.03;;;3.63;;
2119;SDS011;1066;52.540;13.420;2023-05-07T08:52:57;6.20;;;4.03;;
2119;SDS011;1066;52.540;13.420;2023-05-07T08:56:15;5.20;;;4.23;;
2119;SDS011;1066;52.540;13.420;2023-05-07T08:59:33;4.60;;;4.20;;
2119;SDS011;1066;52.540;13.420;2023-05-07T09:02:52;4.50;;;3.50;;
2119;SDS011;1066;52.540;13.420;2023-05-07T09:06:10;3.70;;;3.40;;
2119;SDS011;1066;52.540;13.420;2023-05-07T09:09:31;3.87;;;3.47;;
2119;SDS011;1066;52.540;13.420;2023-05-07T09:12:50;4.07;;;3.67;;
2119;SDS011;1066;52.540;13.420;2023-05-07T09:16:11;5.20;;;3.70;;
2119;SDS011;1066;52.540;13.420;2023-05-07T09:19:29;5.40;;;3.90;;
2119;SDS011;1066;52.540;13.420;2023-05-07T09:22:48;4.80;;;3.53;;
2119;SDS011;1066;52.540;13.420;2023-05-07T09:26:06;5.03;;;3.40;;
2119;SDS011;1066;52.540;13.420;2023-05-07T09:29:25;4.17;;;3.80;;
2119;SDS011;1066;52.540;13.420;2023-05-07T09:32:43;5.33;;;3.77;;
2119;SDS011;1066;52.540;13.420;2023-05-07T09:36:08;3.80;;;3.20;;
2119;SDS011;1066;52.540;13.420;2023-05-07T09:39:33;3.53;;;2.97;;
2119;SDS011;1066;52.540;13.420;2023-05-07T09:42:56;3.53;;;3.23;;
2119;SDS011;1066;52.540;13.420;2023-05-07T09:46:14;5.13;;;2.90;;
2119;SDS011;1066;52.540;13.420;2023-05-07T09:49:36;4.30;;;3.90;;
2119;SDS011;1066;52.540;13.420;2023-05-07T09:52:55;3.33;;;2.73;;
2119;SDS011;1066;52.540;13.420;2023-05-07T09:56:14;3.00;;;2.67;;
2119;SDS011;1066;52.540;13.420;2023-05-07T09:59:32;2.50;;;2.27;;
2119;SDS011;1066;52.540;13.420;2023-05-07T10:02:53;3.30;;;2.97;;
2119;SDS011;1066;52.540;13.420;2023-05-07T10:06:12;3.80;;;2.87;;
2119;SDS011;1066;52.540;13.420;2023-05-07T10:09:30;2.97;;;2.50;;
2119;SDS011;1066;52.540;13.420;2023-05-07T10:12:49;4.40;;;2.50;;
2119;SDS011;1066;52.540;13.420;2023-05-07T10:16:08;2.20;;;2.00;;
2119;SDS011;1066;52.540;13.420;2023-05-07T10:19:26;3.27;;;2.40;;
2119;SDS011;1066;52.540;13.420;2023-05-07T10:22:45;2.67;;;2.40;;
2119;SDS011;1066;52.540;13.420;2023-05-07T10:26:03;2.73;;;2.10;;
2119;SDS011;1066;52.540;13.420;2023-05-07T10:33:08;2.60;;;2.40;;
2119;SDS011;1066;52.540;13.420;2023-05-07T10:36:26;2.80;;;2.30;;
2119;SDS011;1066;52.540;13.420;2023-05-07T10:39:44;2.13;;;1.93;;
2119;SDS011;1066;52.540;13.420;2023-05-07T10:43:03;4.73;;;3.00;;
2119;SDS011;1066;52.540;13.420;2023-05-07T10:46:21;2.10;;;1.90;;
2119;SDS011;1066;52.540;13.420;2023-05-07T10:56:37;3.30;;;2.13;;
2119;SDS011;1066;52.540;13.420;2023-05-07T10:59:55;3.50;;;2.60;;
2119;SDS011;1066;52.540;13.420;2023-05-07T11:03:14;2.47;;;2.27;;
2119;SDS011;1066;52.540;13.420;2023-05-07T11:06:38;2.90;;;2.33;;
2119;SDS011;1066;52.540;13.420;2023-05-07T11:09:57;2.70;;;2.50;;
2119;SDS011;1066;52.540;13.420;2023-05-07T11:17:21;2.30;;;2.10;;
2119;SDS011;1066;52.540;13.420;2023-05-07T11:20:53;2.60;;;2.40;;
2119;SDS011;1066;52.540;13.420;2023-05-07T11:24:11;3.20;;;2.30;;
2119;SDS011;1066;52.540;13.420;2023-05-07T11:27:30;2.60;;;2.30;;
2119;SDS011;1066;52.540;13.420;2023-05-07T11:30:48;3.20;;;2.37;;
2119;SDS011;1066;52.540;13.420;2023-05-07T11:34:06;2.93;;;1.90;;
2119;SDS011;1066;52.540;13.420;2023-05-07T11:37:26;2.07;;;1.87;;
2119;SDS011;1066;52.540;13.420;2023-05-07T11:40:54;2.07;;;1.70;;
2119;SDS011;1066;52.540;13.420;2023-05-07T11:44:12;2.60;;;2.40;;
2119;SDS011;1066;52.540;13.420;2023-05-07T11:47:31;3.67;;;2.60;;
2119;SDS011;1066;52.540;13.420;2023-05-07T11:50:52;2.57;;;2.37;;
2119;SDS011;1066;52.540;13.420;2023-05-07T11:54:11;2.70;;;2.47;;
2119;SDS011;1066;52.540;13.420;2023-05-07T11:57:33;2.93;;;2.20;;
2119;SDS011;1066;52.540;13.420;2023-05-07T12:00:51;2.33;;;2.10;;
2119;SDS011;1066;52.540;13.420;2023-05-07T12:04:10;2.33;;;2.13;;
2119;SDS011;1066;52.540;13.420;2023-05-07T12:07:28;2.07;;;1.87;;
2119;SDS011;1066;52.540;13.420;2023-05-07T12:10:48;2.53;;;2.30;;
2119;SDS011;1066;52.540;13.420;2023-05-07T12:14:06;2.80;;;1.97;;
2119;SDS011;1066;52.540;13.420;2023-05-07T12:17:23;2.43;;;2.23;;
2119;SDS011;1066;52.540;13.420;2023-05-07T12:20:41;2.03;;;1.87;;
2119;SDS011;1066;52.540;13.420;2023-05-07T12:23:59;3.17;;;2.30;;
2119;SDS011;1066;52.540;13.420;2023-05-07T12:27:23;2.07;;;1.87;;
2119;SDS011;1066;52.540;13.420;2023-05-07T12:30:43;2.87;;;2.57;;
2119;SDS011;1066;52.540;13.420;2023-05-07T12:34:02;1.93;;;1.67;;
2119;SDS011;1066;52.540;13.420;2023-05-07T12:37:23;2.37;;;2.17;;
2119;SDS011;1066;52.540;13.420;2023-05-07T12:40:43;2.53;;;2.00;;
2119;SDS011;1066;52.540;13.420;2023-05-07T12:44:16;2.07;;;1.77;;
2119;SDS011;1066;52.540;13.420;2023-05-07T12:47:38;1.90;;;1.80;;
2119;SDS011;1066;52.540;13.420;2023-05-07T12:50:56;2.57;;;1.87;;
2119;SDS011;1066;52.540;13.420;2023-05-07T12:54:30;2.20;;;1.93;;
2119;SDS011;1066;52.540;13.420;2023-05-07T12:57:48;2.67;;;2.43;;
2119;SDS011;1066;52.540;13.420;2023-05-07T13:01:07;3.00;;;2.70;;
2119;SDS011;1066;52.540;13.420;2023-05-07T13:04:25;2.70;;;2.40;;
2119;SDS011;1066;52.540;13.420;2023-05-07T13:07:52;2.93;;;2.63;;
2119;SDS011;1066;52.540;13.420;2023-05-07T13:11:10;2.97;;;2.10;;
2119;SDS011;1066;52.540;13.420;2023-05-07T13:14:28;2.40;;;2.20;;
2119;SDS011;1066;52.540;13.420;2023-05-07T13:17:46;2.00;;;1.80;;
2119;SDS011;1066;52.540;13.420;2023-05-07T13:21:05;2.30;;;2.10;;
2119;SDS011;1066;52.540;13.420;2023-05-07T13:24:22;3.80;;;2.23;;
2119;SDS011;1066;52.540;13.420;2023-05-07T13:27:41;2.10;;;1.80;;
2119;SDS011;1066;52.540;13.420;2023-05-07T13:30:59;2.63;;;1.90;;
2119;SDS011;1066;52.540;13.420;2023-05-07T13:34:16;2.73;;;2.20;;
2119;SDS011;1066;52.540;13.420;2023-05-07T13:37:34;2.10;;;1.90;;
2119;SDS011;1066;52.540;13.420;2023-05-07T13:40:52;1.90;;;1.80;;
2119;SDS011;1066;52.540;13.420;2023-05-07T13:44:10;2.30;;;2.10;;
2119;SDS011;1066;52.540;13.420;2023-05-07T13:47:30;2.53;;;1.83;;
2119;SDS011;1066;52.540;13.420;2023-05-07T13:50:47;2.27;;;2.07;;
2119;SDS011;1066;52.540;13.420;2023-05-07T13:54:05;3.47;;;2.20;;
2119;SDS011;1066;52.540;13.420;2023-05-07T13:57:23;2.70;;;1.80;;
2119;SDS011;1066;52.540;13.420;2023-05-07T14:00:41;2.83;;;2.00;;
2119;SDS011;1066;52.540;13.420;2023-05-07T14:03:59;2.17;;;1.83;;
2119;SDS011;1066;52.540;13.420;2023-05-07T14:07:17;3.03;;;2.40;;
2119;SDS011;1066;52.540;13.420;2023-05-07T14:10:35;2.30;;;1.93;;
2119;SDS011;1066;52.540;13.420;2023-05-07T14:13:53;2.00;;;1.80;;
2119;SDS011;1066;52.540;13.420;2023-05-07T14:17:11;2.57;;;1.90;;
2119;SDS011;1066;52.540;13.420;2023-05-07T14:20:29;2.57;;;2.10;;
2119;SDS011;1066;52.540;13.420;2023-05-07T14:23:47;2.60;;;2.17;;
2119;SDS011;1066;52.540;13.420;2023-05-07T14:27:05;1.70;;;1.60;;
2119;SDS011;1066;52.540;13.420;2023-05-07T14:30:23;2.03;;;1.83;;
2119;SDS011;1066;52.540;13.420;2023-05-07T14:33:41;2.17;;;2.00;;
2119;SDS011;1066;52.540;13.420;2023-05-07T14:36:59;2.23;;;1.83;;
2119;SDS011;1066;52.540;13.420;2023-05-07T14:40:17;2.93;;;1.80;;
2119;SDS011;1066;52.540;13.420;2023-05-07T14:43:35;3.00;;;2.10;;
2119;SDS011;1066;52.540;13.420;2023-05-07T14:46:53;1.73;;;1.60;;
2119;SDS011;1066;52.540;13.420;2023-05-07T14:50:11;3.20;;;1.83;;
2119;SDS011;1066;52.540;13.420;2023-05-07T14:53:29;2.63;;;1.90;;
2119;SDS011;1066;52.540;13.420;2023-05-07T14:56:47;2.10;;;1.90;;
2119;SDS011;1066;52.540;13.420;2023-05-07T15:00:05;3.03;;;1.83;;
2119;SDS011;1066;52.540;13.420;2023-05-07T15:03:23;1.80;;;1.70;;
2119;SDS011;1066;52.540;13.420;2023-05-07T15:06:41;3.00;;;1.77;;
2119;SDS011;1066;52.540;13.420;2023-05-07T15:09:59;2.73;;;1.77;;
2119;SDS011;1066;52.540;13.420;2023-05-07T15:13:17;1.67;;;1.50;;
2119;SDS011;1066;52.540;13.420;2023-05-07T15:16:35;3.03;;;1.47;;
2119;SDS011;1066;52.540;13.420;2023-05-07T15:19:53;3.20;;;1.90;;
2119;SDS011;1066;52.540;13.420;2023-05-07T15:23:11;1.70;;;1.60;;
2119;SDS011;1066;52.540;13.420;2023-05-07T15:26:28;2.13;;;1.93;;
2119;SDS011;1066;52.540;13.420;2023-05-07T15:29:46;4.30;;;2.00;;
2119;SDS011;1066;52.540;13.420;2023-05-07T15:33:04;2.10;;;1.90;;
2119;SDS011;1066;52.540;13.420;2023-05-07T15:36:22;1.90;;;1.70;;
2119;SDS011;1066;52.540;13.420;2023-05-07T15:39:40;2.07;;;1.87;;
2119;SDS011;1066;52.540;13.420;2023-05-07T15:43:00;5.50;;;1.80;;
2119;SDS011;1066;52.540;13.420;2023-05-07T15:46:18;2.73;;;1.90;;
2119;SDS011;1066;52.540;13.420;2023-05-07T15:49:38;2.10;;;1.67;;
2119;SDS011;1066;52.540;13.420;2023-05-07T15:52:57;4.00;;;2.20;;
2119;SDS011;1066;52.540;13.420;2023-05-07T15:56:16;2.97;;;2.00;;
2119;SDS011;1066;52.540;13.420;2023-05-07T15:59:35;2.17;;;1.73;;
2119;SDS011;1066;52.540;13.420;2023-05-07T16:02:53;1.87;;;1.60;;
2119;SDS011;1066;52.540;13.420;2023-05-07T16:06:11;2.00;;;1.80;;
2119;SDS011;1066;52.540;13.420;2023-05-07T16:09:29;2.33;;;2.03;;
2119;SDS011;1066;52.540;13.420;2023-05-07T16:12:47;1.83;;;1.40;;
2119;SDS011;1066;52.540;13.420;2023-05-07T16:16:05;2.13;;;1.53;;
2119;SDS011;1066;52.540;13.420;2023-05-07T16:19:23;2.17;;;1.97;;
2119;SDS011;1066;52.540;13.420;2023-05-07T16:22:43;4.47;;;2.30;;
2119;SDS011;1066;52.540;13.420;2023-05-07T16:26:01;2.20;;;1.80;;
2119;SDS011;1066;52.540;13.420;2023-05-07T16:29:20;4.53;;;2.03;;
2119;SDS011;1066;52.540;13.420;2023-05-07T16:32:38;2.47;;;1.80;;
2119;SDS011;1066;52.540;13.420;2023-05-07T16:35:55;1.60;;;1.50;;
2119;SDS011;1066;52.540;13.420;2023-05-07T16:39:13;2.10;;;1.90;;
2119;SDS011;1066;52.540;13.420;2023-05-07T16:42:35;2.43;;;1.93;;
2119;SDS011;1066;52.540;13.420;2023-05-07T16:45:53;1.93;;;1.50;;
2119;SDS011;1066;52.540;13.420;2023-05-07T16:49:11;2.80;;;1.63;;
2119;SDS011;1066;52.540;13.420;2023-05-07T16:52:29;1.83;;;1.63;;
2119;SDS011;1066;52.540;13.420;2023-05-07T16:55:47;2.23;;;2.03;;
2119;SDS011;1066;52.540;13.420;2023-05-07T16:59:06;2.10;;;1.90;;
2119;SDS011;1066;52.540;13.420;2023-05-07T17:02:24;2.43;;;1.73;;
2119;SDS011;1066;52.540;13.420;2023-05-07T17:05:42;2.20;;;2.00;;
2119;SDS011;1066;52.540;13.420;2023-05-07T17:09:00;2.27;;;1.90;;
2119;SDS011;1066;52.540;13.420;2023-05-07T17:12:18;3.30;;;1.83;;
2119;SDS011;1066;52.540;13.420;2023-05-07T17:15:36;4.07;;;3.53;;
2119;SDS011;1066;52.540;13.420;2023-05-07T17:18:56;5.90;;;2.20;;
2119;SDS011;1066;52.540;13.420;2023-05-07T17:22:14;2.10;;;1.90;;
2119;SDS011;1066;52.540;13.420;2023-05-07T17:25:33;2.30;;;1.97;;
2119;SDS011;1066;52.540;13.420;2023-05-07T17:28:51;2.97;;;2.03;;
2119;SDS011;1066;52.540;13.420;2023-05-07T17:32:09;1.70;;;1.60;;
2119;SDS011;1066;52.540;13.420;2023-05-07T17:35:27;2.40;;;1.97;;
2119;SDS011;1066;52.540;13.420;2023-05-07T17:38:45;2.13;;;1.93;;
2119;SDS011;1066;52.540;13.420;2023-05-07T17:42:03;3.00;;;1.87;;
2119;SDS011;1066;52.540;13.420;2023-05-07T17:45:21;2.13;;;1.93;;
2119;SDS011;1066;52.540;13.420;2023-05-07T17:48:39;2.50;;;2.30;;
2119;SDS011;1066;52.540;13.420;2023-05-07T17:51:57;3.70;;;2.53;;
2119;SDS011;1066;52.540;13.420;2023-05-07T17:55:15;3.33;;;2.73;;
2119;SDS011;1066;52.540;13.420;2023-05-07T17:58:33;2.23;;;2.03;;
2119;SDS011;1066;52.540;13.420;2023-05-07T18:01:51;3.57;;;2.17;;
2119;SDS011;1066;52.540;13.420;2023-05-07T18:05:08;2.07;;;1.87;;
2119;SDS011;1066;52.540;13.420;2023-05-07T18:08:26;2.03;;;1.83;;
2119;SDS011;1066;52.540;13.420;2023-05-07T18:11:45;2.10;;;1.83;;
2119;SDS011;1066;52.540;13.420;2023-05-07T18:15:04;2.30;;;1.90;;
2119;SDS011;1066;52.540;13.420;2023-05-07T18:18:22;1.60;;;1.27;;
2119;SDS011;1066;52.540;13.420;2023-05-07T18:21:40;3.43;;;1.80;;
2119;SDS011;1066;52.540;13.420;2023-05-07T18:24:58;2.20;;;2.00;;
2119;SDS011;1066;52.540;13.420;2023-05-07T18:28:16;4.00;;;2.30;;
2119;SDS011;1066;52.540;13.420;2023-05-07T18:31:37;2.83;;;1.97;;
2119;SDS011;1066;52.540;13.420;2023-05-07T18:34:55;2.47;;;2.27;;
2119;SDS011;1066;52.540;13.420;2023-05-07T18:38:15;3.03;;;1.90;;
2119;SDS011;1066;52.540;13.420;2023-05-07T18:41:36;4.83;;;2.70;;
2119;SDS011;1066;52.540;13.420;2023-05-07T18:44:55;3.20;;;2.20;;
2119;SDS011;1066;52.540;13.420;2023-05-07T18:48:13;2.40;;;2.20;;
2119;SDS011;1066;52.540;13.420;2023-05-07T18:51:30;2.53;;;2.10;;
2119;SDS011;1066;52.540;13.420;2023-05-07T18:54:50;3.40;;;2.17;;
2119;SDS011;1066;52.540;13.420;2023-05-07T18:58:10;2.30;;;1.70;;
2119;SDS011;1066;52.540;13.420;2023-05-07T19:01:28;1.93;;;1.70;;
2119;SDS011;1066;52.540;13.420;2023-05-07T19:04:46;3.03;;;2.50;;
2119;SDS011;1066;52.540;13.420;2023-05-07T19:08:05;2.37;;;2.00;;
2119;SDS011;1066;52.540;13.420;2023-05-07T19:11:22;3.70;;;2.30;;
2119;SDS011;1066;52.540;13.420;2023-05-07T19:14:40;2.33;;;2.07;;
2119;SDS011;1066;52.540;13.420;2023-05-07T19:17:58;3.70;;;2.20;;
2119;SDS011;1066;52.540;13.420;2023-05-07T19:21:16;2.43;;;2.23;;
2119;SDS011;1066;52.540;13.420;2023-05-07T19:24:34;3.20;;;2.13;;
2119;SDS011;1066;52.540;13.420;2023-05-07T19:27:52;3.03;;;2.27;;
2119;SDS011;1066;52.540;13.420;2023-05-07T19:31:16;3.63;;;2.07;;
2119;SDS011;1066;52.540;13.420;2023-05-07T19:34:34;2.60;;;2.40;;
2119;SDS011;1066;52.540;13.420;2023-05-07T19:37:52;3.47;;;2.90;;
2119;SDS011;1066;52.540;13.420;2023-05-07T19:41:11;2.73;;;2.53;;
2119;SDS011;1066;52.540;13.420;2023-05-07T19:44:29;2.37;;;2.17;;
2119;SDS011;1066;52.540;13.420;2023-05-07T19:47:47;3.43;;;2.50;;
2119;SDS011;1066;52.540;13.420;2023-05-07T19:51:05;2.27;;;2.07;;
2119;SDS011;1066;52.540;13.420;2023-05-07T19:54:22;2.90;;;2.53;;
2119;SDS011;1066;52.540;13.420;2023-05-07T19:57:40;2.63;;;2.30;;
2119;SDS011;1066;52.540;13.420;2023-05-07T20:00:58;3.93;;;2.63;;
2119;SDS011;1066;52.540;13.420;2023-05-07T20:04:16;2.40;;;2.20;;
2119;SDS011;1066;52.540;13.420;2023-05-07T20:07:35;2.97;;;2.50;;
2119;SDS011;1066;52.540;13.420;2023-05-07T20:10:55;2.90;;;2.60;;
2119;SDS011;1066;52.540;13.420;2023-05-07T20:14:13;3.13;;;2.40;;
2119;SDS011;1066;52.540;13.420;2023-05-07T20:17:31;5.87;;;3.67;;
2119;SDS011;1066;52.540;13.420;2023-05-07T20:20:50;3.70;;;3.23;;
2119;SDS011;1066;52.540;13.420;2023-05-07T20:24:08;4.90;;;3.73;;
2119;SDS011;1066;52.540;13.420;2023-05-07T20:27:28;5.23;;;3.43;;